createdAt,value
2019-05-11T00:00:36.133Z,43.40
2019-05-11T00:03:05.362Z,42.49
2019-05-11T00:05:34.529Z,42.89
2019-05-11T00:08:03.789Z,42.47
2019-05-11T00:10:33.006Z,41.86
2019-05-11T00:13:02.244Z,41.35
2019-05-11T00:15:31.557Z,41.68
2019-05-11T00:18:00.810Z,40.85
2019-05-11T00:20:30.046Z,41.00
2019-05-11T00:22:59.227Z,40.22
2019-05-11T00:25:28.591Z,40.29
2019-05-11T00:27:57.765Z,40.25
2019-05-11T00:30:26.952Z,40.84
2019-05-11T00:32:56.198Z,40.99
2019-05-11T00:35:25.483Z,41.71
2019-05-11T00:37:54.752Z,40.96
2019-05-11T00:40:24.038Z,40.80
2019-05-11T00:42:53.265Z,40.52
2019-05-11T00:45:22.434Z,40.22
2019-05-11T00:47:51.623Z,40.00
2019-05-11T00:50:20.903Z,40.04
2019-05-11T00:52:50.154Z,40.17
2019-05-11T00:55:19.390Z,39.99
2019-05-11T00:57:48.637Z,39.74
2019-05-11T01:00:17.826Z,39.95
2019-05-11T01:02:47.049Z,40.19
2019-05-11T01:05:16.316Z,40.12
2019-05-11T01:07:45.559Z,40.40
2019-05-11T01:10:23.669Z,40.26
2019-05-11T01:12:45.960Z,40.54
2019-05-11T01:15:15.166Z,40.69
2019-05-11T01:17:44.529Z,40.94
2019-05-11T01:20:14.145Z,41.44
2019-05-11T01:22:43.404Z,41.36
2019-05-11T01:25:12.700Z,41.60
2019-05-11T01:27:41.969Z,41.80
2019-05-11T01:30:11.215Z,43.27
2019-05-11T01:32:40.589Z,42.89
2019-05-11T01:35:10.061Z,42.18
2019-05-11T01:37:39.241Z,42.56
2019-05-11T01:40:08.480Z,43.13
2019-05-11T01:42:37.721Z,42.83
2019-05-11T01:45:06.942Z,42.68
2019-05-11T01:47:36.162Z,44.46
2019-05-11T01:50:05.419Z,44.88
2019-05-11T01:52:34.594Z,45.45
2019-05-11T01:55:03.821Z,45.91
2019-05-11T01:57:33.066Z,45.64
2019-05-11T02:00:02.304Z,44.33
2019-05-11T02:02:31.598Z,44.74
2019-05-11T02:05:18.811Z,44.51
2019-05-11T02:07:48.038Z,44.00
2019-05-11T02:10:23.845Z,43.79
2019-05-11T02:12:53.517Z,45.33
2019-05-11T02:15:22.697Z,45.39
2019-05-11T02:17:51.867Z,44.80
2019-05-11T02:20:21.159Z,43.66
2019-05-11T02:22:50.450Z,42.78
2019-05-11T02:25:19.711Z,42.51
2019-05-11T02:27:48.875Z,42.27
2019-05-11T02:30:18.276Z,42.02
2019-05-11T02:32:47.436Z,42.49
2019-05-11T02:35:16.617Z,42.35
2019-05-11T02:37:46.285Z,42.83
2019-05-11T02:40:15.533Z,42.18
2019-05-11T02:42:44.777Z,42.39
2019-05-11T02:45:14.015Z,42.30
2019-05-11T02:47:43.805Z,42.62
2019-05-11T02:50:12.983Z,42.76
2019-05-11T02:52:42.380Z,43.15
2019-05-11T02:55:11.638Z,43.49
2019-05-11T02:57:40.876Z,43.82
2019-05-11T03:00:10.142Z,43.33
2019-05-11T03:02:39.323Z,43.31
2019-05-11T03:05:08.631Z,43.67
2019-05-11T03:07:37.878Z,44.27
2019-05-11T03:10:07.124Z,44.55
2019-05-11T03:12:36.354Z,44.35
2019-05-11T03:15:07.231Z,44.75
2019-05-11T03:17:36.474Z,44.87
2019-05-11T03:20:06.979Z,45.15
2019-05-11T03:22:36.230Z,45.14
2019-05-11T03:25:06.400Z,45.49
2019-05-11T03:27:35.585Z,45.72
2019-05-11T03:30:06.908Z,45.51
2019-05-11T03:32:36.118Z,45.50
2019-05-11T03:35:06.097Z,45.20
2019-05-11T03:37:35.409Z,45.45
2019-05-11T03:40:06.629Z,45.65
2019-05-11T03:42:36.128Z,45.51
2019-05-11T03:45:06.546Z,45.61
2019-05-11T03:47:35.770Z,45.42
2019-05-11T03:50:06.812Z,45.49
2019-05-11T03:52:36.006Z,45.43
2019-05-11T03:55:06.162Z,45.17
2019-05-11T03:57:35.434Z,45.27
2019-05-11T04:00:07.190Z,45.21
2019-05-11T04:02:36.423Z,45.41
2019-05-11T04:05:06.128Z,45.70
2019-05-11T04:07:35.407Z,45.70
2019-05-11T04:10:06.587Z,45.85
2019-05-11T04:12:36.042Z,45.78
2019-05-11T04:15:08.951Z,45.69
2019-05-11T04:17:38.421Z,45.64
2019-05-11T04:20:07.743Z,45.78
2019-05-11T04:22:36.927Z,45.79
2019-05-11T04:25:06.416Z,45.61
2019-05-11T04:27:35.793Z,45.80
2019-05-11T04:30:07.923Z,45.93
2019-05-11T04:32:37.152Z,45.87
2019-05-11T04:35:06.567Z,45.92
2019-05-11T04:37:35.744Z,46.06
2019-05-11T04:40:05.504Z,46.08
2019-05-11T04:42:51.811Z,46.02
2019-05-11T04:45:07.355Z,45.99
2019-05-11T04:47:36.748Z,45.53
2019-05-11T04:50:09.025Z,45.28
2019-05-11T04:52:38.194Z,45.20
2019-05-11T04:55:07.407Z,44.83
2019-05-11T04:57:36.704Z,44.50
2019-05-11T05:00:06.540Z,44.47
2019-05-11T05:02:35.747Z,44.41
2019-05-11T05:05:05.754Z,43.64
2019-05-11T05:07:34.938Z,43.41
2019-05-11T05:10:05.115Z,43.81
2019-05-11T05:12:34.298Z,43.11
2019-05-11T05:15:04.176Z,42.76
2019-05-11T05:17:33.403Z,41.99
2019-05-11T05:20:02.582Z,41.90
2019-05-11T05:22:31.880Z,42.16
2019-05-11T05:25:01.053Z,41.74
2019-05-11T05:27:30.298Z,40.20
2019-05-11T05:29:59.651Z,39.21
2019-05-11T05:32:28.898Z,39.31
2019-05-11T05:34:58.092Z,38.89
2019-05-11T05:37:27.288Z,38.73
2019-05-11T05:39:56.547Z,38.01
2019-05-11T05:42:26.169Z,37.71
2019-05-11T05:44:55.379Z,36.50
2019-05-11T05:47:24.634Z,36.77
2019-05-11T05:49:53.836Z,36.57
2019-05-11T05:52:23.110Z,35.74
2019-05-11T05:54:52.312Z,36.03
2019-05-11T05:57:21.501Z,35.68
2019-05-11T05:59:50.799Z,35.58
2019-05-11T06:02:19.993Z,35.56
2019-05-11T06:04:49.249Z,35.24
2019-05-11T06:07:18.497Z,35.46
2019-05-11T06:09:47.748Z,35.39
2019-05-11T06:12:16.939Z,35.36
2019-05-11T06:14:46.171Z,36.01
2019-05-11T06:17:15.426Z,35.53
2019-05-11T06:19:44.700Z,35.15
2019-05-11T06:22:14.680Z,34.98
2019-05-11T06:24:43.928Z,35.48
2019-05-11T06:27:13.167Z,35.90
2019-05-11T06:29:42.456Z,35.60
2019-05-11T06:32:11.622Z,34.50
2019-05-11T06:34:40.977Z,35.05
2019-05-11T06:37:10.608Z,34.56
2019-05-11T06:39:39.784Z,34.18
2019-05-11T06:42:09.079Z,33.69
2019-05-11T06:44:38.325Z,33.58
2019-05-11T06:47:07.510Z,33.19
2019-05-11T06:49:36.753Z,32.65
2019-05-11T06:52:06.103Z,32.90
2019-05-11T06:54:35.366Z,32.31
2019-05-11T06:57:04.562Z,32.19
2019-05-11T06:59:33.774Z,31.62
2019-05-11T07:02:03.032Z,31.14
2019-05-11T07:04:32.261Z,30.46
2019-05-11T07:07:01.456Z,29.95
2019-05-11T07:09:30.736Z,30.33
2019-05-11T07:12:00.130Z,30.81
2019-05-11T07:14:29.479Z,30.69
2019-05-11T07:16:58.903Z,29.99
2019-05-11T07:19:28.076Z,30.49
2019-05-11T07:21:57.386Z,30.84
2019-05-11T07:24:26.591Z,30.78
2019-05-11T07:26:55.836Z,30.84
2019-05-11T07:29:25.077Z,30.59
2019-05-11T07:31:54.329Z,30.01
2019-05-11T07:34:23.660Z,28.70
2019-05-11T07:36:53.287Z,28.86
2019-05-11T07:39:22.671Z,27.59
2019-05-11T07:41:51.950Z,26.54
2019-05-11T07:44:35.028Z,25.79
2019-05-11T07:46:52.642Z,25.14
2019-05-11T07:49:23.548Z,25.94
2019-05-11T07:51:53.085Z,26.25
2019-05-11T07:54:22.596Z,26.73
2019-05-11T07:56:51.889Z,26.80
2019-05-11T07:59:21.135Z,28.01
2019-05-11T08:01:50.507Z,27.28
2019-05-11T08:04:19.815Z,27.57
2019-05-11T08:06:49.143Z,27.26
2019-05-11T08:09:18.820Z,25.04
2019-05-11T08:11:48.282Z,25.06
2019-05-11T08:14:18.253Z,24.88
2019-05-11T08:16:48.209Z,25.57
2019-05-11T08:19:18.500Z,25.06
2019-05-11T08:21:48.230Z,23.07
2019-05-11T08:24:18.128Z,21.71
2019-05-11T08:26:48.128Z,21.11
2019-05-11T08:29:18.550Z,20.71
2019-05-11T08:31:48.756Z,21.77
2019-05-11T08:34:18.357Z,23.48
2019-05-11T08:36:48.113Z,24.47
2019-05-11T08:39:18.229Z,25.28
2019-05-11T08:41:48.777Z,25.07
2019-05-11T08:44:18.355Z,25.57
2019-05-11T08:46:48.048Z,27.44
2019-05-11T08:49:19.020Z,24.42
2019-05-11T08:51:48.444Z,23.55
2019-05-11T08:54:18.433Z,23.56
2019-05-11T08:56:48.678Z,22.45
2019-05-11T08:59:18.789Z,20.94
2019-05-11T09:01:48.476Z,20.57
2019-05-11T09:04:18.356Z,20.85
2019-05-11T09:06:48.069Z,21.43
2019-05-11T09:09:18.063Z,20.68
2019-05-11T09:11:48.235Z,21.85
2019-05-11T09:14:18.824Z,22.16
2019-05-11T09:16:49.058Z,22.92
2019-05-11T09:19:18.574Z,24.06
2019-05-11T09:21:48.321Z,24.30
2019-05-11T09:24:18.994Z,25.70
2019-05-11T09:26:48.407Z,27.90
2019-05-11T09:29:17.969Z,28.65
2019-05-11T09:31:48.691Z,28.76
2019-05-11T09:34:18.282Z,29.27
2019-05-11T09:36:48.027Z,29.85
2019-05-11T09:39:17.852Z,29.79
2019-05-11T09:41:48.807Z,29.83
2019-05-11T09:44:18.457Z,29.24
2019-05-11T09:46:48.006Z,30.07
2019-05-11T09:49:18.512Z,29.98
2019-05-11T09:51:48.868Z,30.13
2019-05-11T09:54:18.401Z,30.52
2019-05-11T09:56:48.623Z,31.16
2019-05-11T09:59:18.206Z,31.12
2019-05-11T10:01:48.367Z,30.82
2019-05-11T10:04:18.208Z,30.37
2019-05-11T10:06:48.211Z,30.59
2019-05-11T10:09:18.686Z,30.47
2019-05-11T10:11:48.190Z,30.12
2019-05-11T10:14:18.718Z,29.64
2019-05-11T10:16:49.116Z,29.85
2019-05-11T10:19:18.584Z,29.04
2019-05-11T10:21:48.666Z,29.73
2019-05-11T10:24:18.180Z,30.12
2019-05-11T10:26:48.704Z,29.79
2019-05-11T10:29:18.429Z,29.00
2019-05-11T10:31:48.164Z,30.89
2019-05-11T10:34:19.586Z,29.59
2019-05-11T10:36:49.091Z,27.87
2019-05-11T10:39:18.802Z,27.18
2019-05-11T10:41:48.258Z,27.59
2019-05-11T10:44:18.747Z,27.26
2019-05-11T10:46:48.499Z,27.51
2019-05-11T10:49:18.546Z,28.24
2019-05-11T10:51:48.646Z,28.86
2019-05-11T10:54:18.813Z,28.09
2019-05-11T10:56:48.345Z,28.38
2019-05-11T10:59:18.772Z,29.17
2019-05-11T11:01:48.521Z,30.49
2019-05-11T11:04:18.602Z,29.83
2019-05-11T11:06:48.528Z,28.95
2019-05-11T11:09:18.046Z,28.47
2019-05-11T11:11:48.856Z,26.99
2019-05-11T11:14:18.292Z,28.12
2019-05-11T11:16:48.057Z,27.48
2019-05-11T11:19:18.422Z,27.63
2019-05-11T11:21:48.735Z,27.74
2019-05-11T11:24:18.391Z,28.32
2019-05-11T11:26:48.596Z,28.10
2019-05-11T11:29:18.265Z,26.77
2019-05-11T11:31:48.186Z,26.66
2019-05-11T11:34:18.794Z,26.24
2019-05-11T11:36:48.594Z,24.74
2019-05-11T11:39:18.737Z,25.19
2019-05-11T11:41:48.702Z,24.65
2019-05-11T11:44:18.610Z,24.73
2019-05-11T11:46:54.634Z,23.97
2019-05-11T11:49:19.220Z,24.22
2019-05-11T11:51:48.681Z,24.57
2019-05-11T11:54:18.391Z,24.97
2019-05-11T11:56:48.543Z,25.26
2019-05-11T11:59:18.125Z,24.68
2019-05-11T12:01:48.683Z,25.90
2019-05-11T12:04:18.817Z,25.95
2019-05-11T12:06:49.021Z,25.73
2019-05-11T12:09:18.649Z,26.37
2019-05-11T12:11:48.568Z,26.70
2019-05-11T12:14:18.824Z,27.23
2019-05-11T12:17:03.672Z,28.03
2019-05-11T12:19:19.760Z,28.79
2019-05-11T12:21:49.082Z,28.95
2019-05-11T12:24:18.822Z,29.71
2019-05-11T12:26:48.295Z,29.53
2019-05-11T12:29:18.856Z,30.33
2019-05-11T12:31:48.691Z,30.49
2019-05-11T12:34:18.104Z,30.35
2019-05-11T12:36:47.978Z,30.09
2019-05-11T12:39:19.186Z,30.06
2019-05-11T12:41:48.536Z,29.60
2019-05-11T12:44:18.804Z,29.95
2019-05-11T12:46:49.000Z,29.19
2019-05-11T12:49:18.855Z,28.91
2019-05-11T12:51:48.778Z,28.20
2019-05-11T12:54:18.788Z,28.07
2019-05-11T12:56:49.013Z,28.69
2019-05-11T12:59:18.861Z,27.03
2019-05-11T13:01:48.725Z,27.23
2019-05-11T13:04:18.375Z,26.55
2019-05-11T13:06:48.616Z,26.83
2019-05-11T13:09:18.470Z,26.90
2019-05-11T13:11:48.324Z,27.75
2019-05-11T13:14:18.508Z,28.23
2019-05-11T13:16:48.813Z,29.02
2019-05-11T13:19:18.166Z,29.33
2019-05-11T13:21:48.705Z,28.65
2019-05-11T13:24:18.757Z,28.72
2019-05-11T13:26:48.645Z,28.91
2019-05-11T13:29:18.210Z,29.00
2019-05-11T13:31:48.575Z,27.60
2019-05-11T14:49:40.881Z,26.98
2019-05-11T14:52:10.293Z,25.62
2019-05-11T14:54:39.768Z,25.76
2019-05-11T14:57:08.956Z,25.83
2019-05-11T14:59:38.205Z,26.32
2019-05-11T15:02:12.057Z,25.72
2019-05-11T15:04:43.085Z,25.24
2019-05-11T15:07:12.496Z,25.43
2019-05-11T15:09:41.753Z,25.67
2019-05-11T15:12:10.930Z,26.50
2019-05-11T15:14:40.149Z,26.62
2019-05-11T15:17:09.275Z,26.97
2019-05-11T15:19:38.524Z,27.54
2019-05-11T15:22:08.665Z,26.79
2019-05-11T15:24:38.518Z,25.59
2019-05-11T15:27:08.201Z,26.14
2019-05-11T15:29:37.824Z,26.34
2019-05-11T15:32:08.489Z,25.79
2019-05-11T15:34:38.282Z,25.92
2019-05-11T15:37:08.408Z,25.56
2019-05-11T15:39:37.993Z,25.50
2019-05-11T15:42:14.601Z,25.52
2019-05-11T15:44:38.298Z,25.33
2019-05-11T15:47:07.887Z,24.93
2019-05-11T15:49:37.647Z,25.03
2019-05-11T15:52:08.342Z,24.39
2019-05-11T15:54:38.524Z,24.87
2019-05-11T15:57:08.371Z,25.27
2019-05-11T15:59:38.846Z,25.62
2019-05-11T16:02:08.674Z,25.53
2019-05-11T16:04:38.143Z,25.41
2019-05-11T16:07:08.912Z,25.11
2019-05-11T16:09:38.219Z,24.85
2019-05-11T16:12:07.564Z,25.03
2019-05-11T16:14:38.340Z,25.70
2019-05-11T16:17:08.760Z,25.36
2019-05-11T16:19:40.943Z,25.15
2019-05-11T16:22:10.048Z,25.53
2019-05-11T16:24:40.053Z,25.38
2019-05-11T16:27:09.381Z,25.74
2019-05-11T16:29:38.557Z,26.08
2019-05-11T16:32:08.394Z,25.34
2019-05-11T16:34:38.152Z,25.26
2019-05-11T16:37:09.969Z,25.54
2019-05-11T16:39:38.633Z,25.47
2019-05-11T16:42:08.484Z,25.79
2019-05-11T16:44:37.934Z,24.76
2019-05-11T16:47:08.741Z,24.59
2019-05-11T16:49:38.386Z,24.53
2019-05-11T16:52:10.063Z,24.77
2019-05-11T16:54:38.924Z,25.08
2019-05-11T16:57:08.622Z,24.98
2019-05-11T16:59:39.902Z,25.10
2019-05-11T17:02:08.931Z,25.48
2019-05-11T17:04:39.768Z,24.72
2019-05-11T17:07:09.168Z,24.92
2019-05-11T17:09:38.373Z,25.44
2019-05-11T17:12:08.553Z,25.31
2019-05-11T17:14:39.588Z,25.09
2019-05-11T17:17:08.970Z,25.24
2019-05-11T17:19:45.448Z,25.02
2019-05-11T17:22:09.237Z,25.51
2019-05-11T17:24:38.394Z,26.22
2019-05-11T17:27:08.850Z,26.01
2019-05-11T17:29:38.366Z,26.02
2019-05-11T17:32:08.542Z,26.14
2019-05-11T17:34:38.211Z,26.34
2019-05-11T17:37:08.929Z,26.93
2019-05-11T17:39:38.638Z,27.09
2019-05-11T17:42:09.028Z,27.51
2019-05-11T17:44:38.450Z,27.85
2019-05-11T17:47:08.413Z,28.22
2019-05-11T17:49:38.507Z,28.58
2019-05-11T17:52:09.387Z,28.82
2019-05-11T17:54:38.595Z,29.46
2019-05-11T17:57:07.982Z,30.00
2019-05-11T17:59:38.630Z,30.32
2019-05-11T18:02:09.501Z,30.71
2019-05-11T18:04:40.515Z,30.93
2019-05-11T18:07:24.100Z,31.34
2019-05-11T18:09:40.716Z,31.59
2019-05-11T18:12:10.033Z,31.86
2019-05-11T18:14:39.543Z,31.67
2019-05-11T18:17:10.110Z,32.07
2019-05-11T18:19:39.427Z,32.46
2019-05-11T18:22:08.695Z,32.65
2019-05-11T18:24:38.359Z,32.82
2019-05-11T18:27:08.323Z,33.14
2019-05-11T18:29:38.122Z,33.47
2019-05-11T18:32:07.424Z,33.75
2019-05-11T18:34:37.706Z,34.12
2019-05-11T18:37:08.770Z,34.23
2019-05-11T18:39:38.115Z,34.71
2019-05-11T18:42:08.271Z,34.55
2019-05-11T18:44:38.023Z,34.80
2019-05-11T18:47:08.824Z,35.07
2019-05-11T18:49:38.311Z,35.24
2019-05-11T18:52:08.236Z,35.52
2019-05-11T18:54:38.500Z,35.51
2019-05-11T18:57:08.240Z,35.98
2019-05-11T18:59:37.941Z,36.01
2019-05-11T19:02:08.454Z,35.96
2019-05-11T19:04:38.229Z,36.21
2019-05-11T19:07:16.409Z,36.46
2019-05-11T19:09:38.595Z,36.65
2019-05-11T19:12:08.563Z,36.69
2019-05-11T19:14:38.559Z,36.88
2019-05-11T19:17:08.194Z,36.71
2019-05-11T19:19:38.004Z,37.02
2019-05-11T19:22:09.009Z,37.07
2019-05-11T19:24:38.521Z,37.25
2019-05-11T19:27:08.168Z,36.99
2019-05-11T19:29:38.037Z,37.18
2019-05-11T19:32:10.824Z,37.31
2019-05-11T19:34:38.885Z,37.16
2019-05-11T19:37:08.710Z,37.14
2019-05-11T19:39:38.525Z,38.04
2019-05-11T19:42:07.991Z,40.22
2019-05-11T19:44:38.599Z,44.31
2019-05-11T19:47:08.882Z,42.08
2019-05-11T19:49:38.493Z,41.12
2019-05-11T19:52:08.644Z,40.02
2019-05-11T19:54:38.396Z,39.29
2019-05-11T19:57:08.323Z,39.25
2019-05-11T19:59:38.707Z,39.04
2019-05-11T20:02:09.021Z,39.09
2019-05-11T20:04:38.768Z,39.15
2019-05-11T20:07:08.731Z,38.75
2019-05-11T20:09:38.816Z,39.05
2019-05-11T20:12:08.232Z,39.16
2019-05-11T20:14:37.908Z,39.56
2019-05-11T20:17:08.968Z,39.62
2019-05-11T20:19:38.529Z,40.02
2019-05-11T20:22:07.799Z,40.36
2019-05-11T20:24:37.116Z,40.37
2019-05-11T20:27:08.076Z,40.33
2019-05-11T20:29:38.408Z,39.64
2019-05-11T20:32:08.188Z,39.20
2019-05-11T20:34:38.160Z,39.73
2019-05-11T20:37:07.889Z,39.24
2019-05-11T20:39:37.930Z,39.43
2019-05-11T20:42:08.728Z,39.20
2019-05-11T20:44:38.034Z,39.31
2019-05-11T20:47:07.291Z,38.97
2019-05-11T20:49:38.528Z,39.12
2019-05-11T20:52:08.666Z,39.44
2019-05-11T20:54:38.670Z,39.71
2019-05-11T20:57:08.890Z,39.86
2019-05-11T20:59:38.242Z,40.37
2019-05-11T21:02:09.256Z,39.96
2019-05-11T21:04:38.619Z,39.24
2019-05-11T21:07:08.503Z,39.10
2019-05-11T21:09:38.096Z,39.22
2019-05-11T21:12:08.154Z,39.33
2019-05-11T21:14:38.580Z,39.33
2019-05-11T21:17:09.011Z,39.70
2019-05-11T21:19:39.754Z,39.92
2019-05-11T21:22:09.445Z,38.88
2019-05-11T21:24:38.757Z,38.87
2019-05-11T21:27:08.088Z,38.93
2019-05-11T21:29:38.731Z,38.85
2019-05-11T21:32:08.419Z,38.96
2019-05-11T21:34:38.388Z,39.27
2019-05-11T21:37:07.993Z,39.69
2019-05-11T21:39:37.886Z,39.57
2019-05-11T21:42:07.776Z,39.61
2019-05-11T21:44:37.257Z,39.12
2019-05-11T21:47:07.734Z,39.35
2019-05-11T21:49:37.831Z,39.26
2019-05-11T21:52:07.867Z,39.62
2019-05-11T21:54:38.682Z,39.11
2019-05-11T21:57:08.328Z,39.30
2019-05-11T21:59:37.975Z,39.02
2019-05-11T22:02:08.311Z,39.44
2019-05-11T22:04:38.852Z,40.12
2019-05-11T22:07:08.312Z,39.80
2019-05-11T22:09:38.382Z,39.79
2019-05-11T22:12:10.779Z,39.76
2019-05-11T22:14:39.960Z,39.47
2019-05-11T22:17:09.142Z,39.33
2019-05-11T22:19:40.433Z,39.42
2019-05-11T22:22:21.156Z,39.43
2019-05-11T22:24:40.419Z,39.06
2019-05-11T22:27:09.590Z,39.15
2019-05-11T22:29:38.905Z,40.09
2019-05-11T22:32:08.164Z,39.85
2019-05-11T22:34:38.686Z,40.24
2019-05-11T22:37:08.648Z,40.15
2019-05-11T22:39:38.028Z,39.72
2019-05-11T22:42:08.050Z,40.22
2019-05-11T22:44:38.650Z,40.69
2019-05-11T22:47:08.935Z,40.64
2019-05-11T22:49:38.340Z,41.00
2019-05-11T22:52:08.624Z,41.68
2019-05-11T22:54:38.422Z,41.30
2019-05-11T22:57:08.183Z,40.84
2019-05-11T22:59:38.456Z,39.71
2019-05-11T23:02:10.676Z,39.65
2019-05-11T23:04:38.975Z,39.77
2019-05-11T23:07:08.224Z,40.42
2019-05-11T23:09:38.191Z,41.05
2019-05-11T23:12:09.089Z,40.86
2019-05-11T23:14:38.564Z,40.50
2019-05-11T23:17:08.160Z,38.80
2019-05-11T23:19:38.100Z,39.08
2019-05-11T23:22:08.210Z,39.52
2019-05-11T23:24:37.712Z,39.63
2019-05-11T23:27:07.996Z,39.40
2019-05-11T23:29:38.443Z,38.60
2019-05-11T23:32:08.641Z,38.74
2019-05-11T23:34:38.771Z,39.02
2019-05-11T23:37:08.151Z,39.01
2019-05-11T23:39:38.779Z,39.35
2019-05-11T23:42:08.285Z,39.31
2019-05-11T23:44:37.547Z,38.91
2019-05-11T23:47:06.807Z,38.72
2019-05-11T23:49:36.118Z,39.14
2019-05-11T23:52:07.492Z,39.20
2019-05-11T23:54:38.247Z,39.38
2019-05-11T23:57:09.337Z,39.68
2019-05-11T23:59:38.677Z,39.84
